Latest Weather Observations for Mount Boyce

IDN60901

Issued at 7:21 pm EDT Sunday 15 December 2019 (issued every 10 minutes, with the page automatically refreshed every 10 minutes)

About weather observations | Map of Sydney area stations | Latest observations for Sydney area | Other Formats
Station Details ID: 063292 Name: MOUNT BOYCE AWS Lat: -33.62 Lon: 150.27 Height: 1080.0 m
Data from the previous 72 hours. | See also: Recent months at Mount Boyce
Date/Time
EDT
Temp
°C
App
Temp
°C
Dew
Point
°C
Rel
Hum
%
Delta-T
°C
Wind Press
QNH
hPa
Press
MSL
hPa
Rain since
9am
mm
Dir  Spd
km/h
Gust
km/h
Spd
kts
Gust
kts
15/07:00pm 24.6 16.6 0.2 20 11.9 W 32 61 17 33 - - 0.0
15/06:30pm 25.8 17.6 0.5 19 12.5 WSW 33 61 18 33 - - 0.0
15/06:07pm 24.3 16.2 -0.1 20 11.8 WSW 32 54 17 29 - - 0.0
15/06:00pm 24.2 16.5 -0.2 20 11.8 WSW 30 46 16 25 - - 0.0
15/05:30pm 24.4 15.3 -0.7 19 12.0 WSW 37 57 20 31 - - 0.0
15/05:03pm 24.2 16.8 -0.9 19 11.9 WSW 28 46 15 25 - - 0.0
15/05:00pm 24.1 16.3 -0.9 19 11.9 WSW 30 44 16 24 - - 0.0
15/04:42pm 24.2 16.4 -0.9 19 11.9 WSW 30 48 16 26 - - 0.0
15/04:30pm 24.2 17.4 -1.6 18 12.1 W 24 46 13 25 - - 0.0
15/04:02pm 24.5 16.9 -2.1 17 12.4 WSW 28 50 15 27 - - 0.0
15/04:00pm 24.9 17.7 -1.8 17 12.6 WSW 26 46 14 25 - - 0.0
15/03:30pm 24.7 16.2 -2.0 17 12.5 WSW 33 57 18 31 - - 0.0
15/03:00pm 24.7 16.0 -3.6 15 12.9 WSW 33 54 18 29 - - 0.0
15/02:37pm 25.0 16.3 -3.4 15 13.0 WSW 33 54 18 29 - - 0.0
15/02:30pm 25.0 16.6 -2.5 16 12.8 WSW 32 48 17 26 - - 0.0
15/02:00pm 25.2 17.3 -1.6 17 12.7 WSW 30 52 16 28 - - 0.0
15/01:59pm 25.6 17.7 -1.2 17 12.8 WSW 30 48 16 26 - - 0.0
15/01:30pm 25.6 18.8 1.0 20 12.2 WSW 26 46 14 25 - - 0.0
15/01:00pm 24.3 17.4 2.5 24 11.0 W 28 43 15 23 - - 0.0
15/12:31pm 24.0 16.5 3.3 26 10.6 WSW 32 50 17 27 - - 0.0
15/12:30pm 24.1 16.4 3.4 26 10.6 WSW 33 50 18 27 - - 0.0
15/12:27pm 23.8 16.2 2.6 25 10.7 WSW 32 50 17 27 - - 0.0
15/12:00pm 24.0 18.6 4.4 28 10.3 WSW 22 35 12 19 - - 0.0
15/11:30am 22.9 17.9 4.4 30 9.6 W 20 32 11 17 - - 0.0
15/11:00am 22.4 17.8 5.4 33 9.0 WSW 19 28 10 15 - - 0.0
15/10:30am 20.9 15.9 4.5 34 8.4 W 20 32 11 17 - - 0.0
15/10:00am 19.2 15.4 7.6 47 6.3 W 17 26 9 14 - - 0.0
15/09:55am 18.8 15.2 8.2 50 5.8 W 17 26 9 14 - - 0.0
15/09:30am 17.5 14.5 9.4 59 4.5 W 15 20 8 11 - - 0.0
15/09:00am 16.8 14.4 10.0 64 3.8 WNW 13 20 7 11 - - 0.0
15/08:30am 16.1 14.3 10.8 71 3.0 WNW 11 17 6 9 - - 0.0
15/08:14am 15.2 14.3 11.4 78 2.2 W 7 17 4 9 - - 0.0
15/08:00am 14.4 13.3 12.1 86 1.3 W 9 13 5 7 - - 0.0
15/07:30am 13.2 12.6 11.6 90 0.9 WSW 6 9 3 5 - - 0.0
15/07:00am 13.1 12.6 12.2 94 0.5 NE 6 9 3 5 - - 0.0
15/06:30am 12.6 11.8 11.7 94 0.5 NE 7 11 4 6 - - 0.0
15/06:00am 12.4 11.5 11.5 94 0.5 NE 7 9 4 5 - - 0.0
15/05:30am 12.6 10.7 11.7 94 0.5 NNE 13 19 7 10 - - 0.0
15/05:00am 12.7 11.6 11.8 94 0.5 NE 9 15 5 8 - - 0.0
15/04:30am 13.0 12.3 11.9 93 0.6 ENE 7 11 4 6 - - 0.0
15/04:00am 12.8 11.9 11.5 92 0.7 ENE 7 11 4 6 - - 0.0
15/03:30am 12.8 11.9 11.4 91 0.8 ENE 7 9 4 5 - - 0.0
15/03:00am 12.7 11.8 11.3 91 0.8 NE 7 9 4 5 - - 0.0
15/02:30am 13.2 12.4 11.8 91 0.8 ENE 7 9 4 5 - - 0.0
15/02:00am 13.3 12.6 11.5 89 1.0 ENE 6 9 3 5 - - 0.0
15/01:30am 13.7 12.6 11.9 89 1.0 ENE 9 15 5 8 - - 0.0
15/01:00am 14.0 13.3 12.0 88 1.1 ENE 7 9 4 5 - - 0.0
15/12:30am 14.1 13.4 12.0 87 1.2 ENE 7 13 4 7 - - 0.0
15/12:00am 14.2 13.0 11.7 85 1.4 ENE 9 13 5 7 - - 0.0
 
Date/Time
EDT
Temp
°C
App
Temp
°C
Dew
Point
°C
Rel
Hum
%
Delta-T
°C
Wind Press
QNH
hPa
Press
MSL
hPa
Rain since
9am
mm
Dir  Spd
km/h
Gust
km/h
Spd
kts
Gust
kts
14/11:43pm 14.6 13.9 11.9 84 1.5 E 7 11 4 6 - - 0.0
14/11:30pm 14.7 14.0 12.0 84 1.5 ENE 7 15 4 8 - - 0.0
14/11:00pm 14.5 13.8 12.0 85 1.4 ENE 7 15 4 8 - - 0.0
14/10:30pm 14.8 14.1 12.1 84 1.5 ENE 7 13 4 7 - - 0.0
14/10:00pm 14.7 13.7 12.4 86 1.3 ENE 9 15 5 8 - - 0.0
14/09:39pm 14.3 13.2 11.8 85 1.4 ENE 9 17 5 9 - - 0.0
14/09:30pm 14.4 12.8 11.6 83 1.6 ENE 11 17 6 9 - - 0.0
14/09:00pm 15.0 13.5 11.8 81 1.8 ENE 11 19 6 10 - - 0.0
14/08:30pm 15.5 13.9 11.7 78 2.2 ENE 11 19 6 10 - - 0.0
14/08:00pm 16.3 13.8 11.2 72 2.9 ENE 15 24 8 13 - - 0.0
14/07:30pm 17.7 15.3 11.3 66 3.7 ENE 15 22 8 12 - - 0.0
14/07:00pm 20.3 18.7 11.5 57 5.1 ENE 11 20 6 11 - - 0.0
14/06:30pm 22.5 20.6 11.9 51 6.3 ENE 13 19 7 10 - - 0.0
14/06:00pm 23.9 22.8 11.9 47 7.1 ESE 9 19 5 10 - - 0.0
14/05:30pm 25.2 18.7 0.0 19 12.3 WSW 24 41 13 22 - - 0.0
14/05:00pm 26.8 19.7 1.3 19 12.8 WSW 28 41 15 22 - - 0.0
14/04:43pm 26.9 19.6 -0.2 17 13.3 WSW 28 46 15 25 - - 0.0
14/04:30pm 26.7 19.0 -0.3 17 13.2 WSW 30 44 16 24 - - 0.0
14/04:00pm 26.9 19.1 -1.0 16 13.5 WSW 30 48 16 26 - - 0.0
14/03:51pm 26.1 18.2 -1.7 16 13.2 SW 30 48 16 26 - - 0.0
14/03:30pm 27.5 20.5 -0.5 16 13.7 W 26 43 14 23 - - 0.0
14/03:00pm 26.2 18.7 -1.6 16 13.2 WSW 28 48 15 26 - - 0.0
14/02:31pm 26.8 19.3 -1.1 16 13.5 WSW 28 46 15 25 - - 0.0
14/02:30pm 26.7 18.8 -1.2 16 13.4 WSW 30 46 16 25 - - 0.0
14/02:17pm 26.6 18.7 -1.3 16 13.4 W 30 50 16 27 - - 0.0
14/02:00pm 26.0 18.9 -0.9 17 13.0 WSW 26 41 14 22 - - 0.0
14/01:30pm 25.2 19.0 0.0 19 12.3 WSW 22 37 12 20 - - 0.0
14/01:00pm 24.5 18.6 2.0 23 11.3 WSW 22 37 12 20 - - 0.0
14/12:30pm 23.9 18.7 2.7 25 10.7 W 19 35 10 19 - - 0.0
14/12:00pm 23.7 19.9 4.1 28 10.2 W 13 24 7 13 - - 0.0
14/11:30am 21.7 17.0 2.9 29 9.4 W 17 28 9 15 - - 0.0
14/11:00am 21.7 19.2 4.7 33 8.8 W 7 13 4 7 - - 0.0
14/10:30am 19.8 16.4 3.9 35 8.0 WSW 11 20 6 11 - - 0.0
14/10:00am 18.3 14.4 3.4 37 7.4 W 13 20 7 11 - - 0.0
14/09:30am 17.7 14.9 5.3 44 6.3 WSW 9 17 5 9 - - 0.0
14/09:00am 16.3 13.0 4.7 46 5.8 W 11 15 6 8 - - 0.0
14/08:33am 15.6 13.4 6.3 54 4.8 W 7 11 4 6 - - 0.0
14/08:30am 15.1 12.9 6.4 56 4.5 W 7 11 4 6 - - 0.0
14/08:00am 13.5 11.6 7.5 67 3.1 WSW 7 9 4 5 - - 0.0
14/07:30am 12.7 10.4 7.6 71 2.6 W 9 11 5 6 - - 0.0
14/07:00am 11.5 9.4 8.4 81 1.6 W 9 13 5 7 - - 0.0
14/06:30am 10.9 9.0 9.0 88 1.0 W 9 15 5 8 - - 0.0
14/06:00am 10.4 8.6 9.6 95 0.4 WNW 9 13 5 7 - - 0.0
14/05:30am 10.1 8.8 9.3 95 0.4 N 6 9 3 5 - - 0.0
14/05:12am 10.9 10.3 10.4 97 0.3 WNW 4 9 2 5 - - 0.0
14/05:00am 10.8 9.6 10.3 97 0.3 WNW 7 9 4 5 - - 0.0
14/04:31am 10.9 9.3 10.3 96 0.3 NE 9 11 5 6 - - 0.0
14/04:30am 10.9 9.3 10.3 96 0.3 NE 9 11 5 6 - - 0.0
14/04:00am 11.3 11.5 10.7 96 0.3 CALM 0 4 0 2 - - 0.0
14/03:30am 11.0 10.0 10.2 95 0.4 NNE 6 9 3 5 - - 0.0
14/03:15am 11.0 10.0 10.2 95 0.4 NE 6 9 3 5 - - 0.0
14/03:00am 11.1 10.8 10.2 94 0.5 NNW 2 7 1 4 - - 0.0
14/02:30am 11.3 11.1 10.4 94 0.5 NW 2 6 1 3 - - 0.0
14/02:00am 11.3 10.3 10.4 94 0.5 NE 6 9 3 5 - - 0.0
14/01:30am 11.6 10.5 10.5 93 0.6 NNE 7 9 4 5 - - 0.0
14/01:00am 12.0 10.9 10.6 91 0.8 NE 7 9 4 5 - - 0.0
14/12:30am 12.5 11.5 10.9 90 0.9 NE 7 11 4 6 - - 0.0
14/12:00am 12.7 11.7 10.9 89 1.0 ENE 7 9 4 5 - - 0.0
 
Date/Time
EDT
Temp
°C
App
Temp
°C
Dew
Point
°C
Rel
Hum
%
Delta-T
°C
Wind Press
QNH
hPa
Press
MSL
hPa
Rain since
9am
mm
Dir  Spd
km/h
Gust
km/h
Spd
kts
Gust
kts
13/11:30pm 12.8 11.8 10.9 88 1.1 ENE 7 11 4 6 - - 0.0
13/11:00pm 13.0 12.2 11.2 89 1.0 ENE 6 9 3 5 - - 0.0
13/10:30pm 13.1 11.8 11.3 89 1.0 ENE 9 13 5 7 - - 0.0
13/10:00pm 13.1 11.8 11.3 89 1.0 ENE 9 13 5 7 - - 0.0
13/09:30pm 13.2 11.9 11.3 88 1.1 ENE 9 15 5 8 - - 0.0
13/09:28pm 13.2 11.9 11.3 88 1.1 ENE 9 15 5 8 - - 0.0
13/09:00pm 13.1 11.7 11.0 87 1.2 ENE 9 13 5 7 - - 0.0
13/08:30pm 13.3 11.8 10.7 84 1.4 ENE 9 13 5 7 - - 0.0
13/08:00pm 13.7 11.9 10.7 82 1.7 ENE 11 17 6 9 - - 0.0
13/07:30pm 14.5 13.1 10.9 79 2.0 ENE 9 15 5 8 - - 0.0
13/07:00pm 15.0 13.2 10.8 76 2.4 ENE 11 19 6 10 - - 0.0
13/06:46pm 15.5 13.7 10.9 74 2.6 ENE 11 17 6 9 - - 0.0
13/06:30pm 15.9 14.1 10.7 71 2.9 ENE 11 20 6 11 - - 0.0
13/06:00pm 17.0 15.2 10.8 67 3.5 ENE 11 20 6 11 - - 0.0
13/05:30pm 17.7 15.4 10.3 62 4.2 ENE 13 24 7 13 - - 0.0
13/05:11pm 19.0 17.0 10.3 57 4.9 ENE 11 22 6 12 - - 0.0
13/05:00pm 19.0 16.4 9.5 54 5.3 ENE 13 28 7 15 - - 0.0
13/04:30pm 20.2 18.2 10.0 52 5.8 ENE 11 20 6 11 - - 0.0
13/04:00pm 19.5 17.3 9.4 52 5.6 ENE 11 24 6 13 - - 0.0
13/03:30pm 20.9 18.3 9.2 47 6.6 ENE 13 20 7 11 - - 0.0
13/03:00pm 21.5 19.2 10.3 49 6.4 ENE 13 24 7 13 - - 0.0
13/02:30pm 20.8 18.8 10.0 50 6.1 ENE 11 19 6 10 - - 0.0
13/02:00pm 19.9 17.9 10.0 53 5.6 ENE 11 20 6 11 - - 0.0
13/01:30pm 20.5 18.0 9.7 50 6.1 ENE 13 20 7 11 - - 0.0
13/01:00pm 19.6 17.9 9.8 53 5.5 ENE 9 17 5 9 - - 0.0
13/12:30pm 18.1 15.9 9.5 57 4.8 ENE 11 20 6 11 - - 0.0
13/12:00pm 17.5 15.8 9.7 60 4.3 ENE 9 15 5 8 - - 0.0
13/11:57am 17.7 16.1 10.1 61 4.3 NE 9 17 5 9 - - 0.0
13/11:30am 16.5 14.9 10.1 66 3.6 ENE 9 13 5 7 - - 0.0
13/11:00am 14.4 12.5 9.2 71 2.8 ENE 9 19 5 10 - - 0.0
13/10:30am 14.2 12.5 9.8 75 2.4 NE 9 15 5 8 - - 0.0
13/10:00am 13.7 11.9 9.6 76 2.2 ENE 9 15 5 8 - - 0.0
13/09:30am 12.8 11.1 9.8 82 1.6 ENE 9 13 5 7 - - 0.0
13/09:00am 12.2 11.0 10.4 89 1.0 ENE 7 13 4 7 - - 0.2
13/08:30am 11.3 10.0 10.0 92 0.7 ENE 7 13 4 7 - - 0.2
13/08:00am 10.9 9.5 9.7 92 0.6 ENE 7 11 4 6 - - 0.2
13/07:30am 11.0 9.3 9.9 93 0.6 ENE 9 13 5 7 - - 0.2
13/07:00am 10.6 9.3 9.8 95 0.4 ENE 7 11 4 6 - - 0.2
13/06:30am 10.4 9.0 9.6 95 0.4 ENE 7 11 4 6 - - 0.2
13/06:00am 10.4 9.1 9.8 96 0.3 ENE 7 11 4 6 - - 0.2
13/05:30am 10.4 9.1 9.9 97 0.3 ENE 7 13 4 7 - - 0.2
13/05:00am 10.3 9.0 9.8 97 0.3 ENE 7 13 4 7 - - 0.2
13/04:30am 10.4 8.7 9.9 97 0.3 ENE 9 13 5 7 - - 0.2
13/04:00am 10.6 9.0 10.1 97 0.3 ENE 9 13 5 7 - - 0.2
13/03:30am 10.8 9.6 10.2 96 0.3 E 7 13 4 7 - - 0.0
13/03:00am 10.9 9.7 10.3 96 0.3 ENE 7 11 4 6 - - 0.0
13/02:30am 10.9 9.3 10.3 96 0.3 ENE 9 13 5 7 - - 0.0
13/02:00am 11.1 9.6 10.5 96 0.3 ENE 9 15 5 8 - - 0.0
13/01:30am 11.0 9.4 10.2 95 0.4 ENE 9 15 5 8 - - 0.0
13/01:00am 11.0 9.4 10.1 94 0.5 ENE 9 17 5 9 - - 0.0
13/12:30am 11.1 9.1 10.2 94 0.5 ENE 11 17 6 9 - - 0.0
13/12:00am 11.3 9.8 10.4 94 0.5 ENE 9 15 5 8 - - 0.0
 
Date/Time
EDT
Temp
°C
App
Temp
°C
Dew
Point
°C
Rel
Hum
%
Delta-T
°C
Wind Press
QNH
hPa
Press
MSL
hPa
Rain since
9am
mm
Dir  Spd
km/h
Gust
km/h
Spd
kts
Gust
kts
12/11:30pm 11.4 9.9 10.5 94 0.5 ENE 9 17 5 9 - - 0.0
12/11:00pm 11.3 9.3 10.2 93 0.6 ENE 11 19 6 10 - - 0.0
12/10:30pm 11.6 10.1 10.5 93 0.6 ENE 9 15 5 8 - - 0.0
12/10:00pm 11.7 10.1 10.3 91 0.8 ENE 9 17 5 9 - - 0.0
12/09:30pm 12.0 10.1 10.4 90 0.9 ENE 11 17 6 9 - - 0.0
12/09:00pm 12.3 10.5 10.7 90 0.9 ENE 11 20 6 11 - - 0.0
12/08:30pm 12.6 10.8 10.7 88 1.0 E 11 20 6 11 - - 0.0
12/08:00pm 13.4 11.1 10.6 83 1.5 ENE 13 22 7 12 - - 0.0
12/07:55pm 13.4 11.5 10.4 82 1.7 ENE 11 20 6 11 - - 0.0
12/07:30pm 14.7 12.7 10.3 75 2.4 ENE 11 17 6 9 - - 0.0

Latest Capital City Observations: Canberra | Sydney | Melbourne | Brisbane | Adelaide | Perth | Hobart | Darwin

Other formats

Comma delimited format used in spreadsheet applications
http://www.bom.gov.au/fwo/IDN60901/IDN60901.94743.axf

JavaScript Object Notation format (JSON) in row-major order
http://www.bom.gov.au/fwo/IDN60901/IDN60901.94743.json

Data quality

Most of these data are generated automatically and are frequently updated. Quality checks on data are not normally performed. It is possible for incorrect values to appear. Refer to information at About Latest Weather Observations and please check the disclaimer before using these data.